Time;durP1;ratioP1;P1;durP2;ratioP2;P2;SDS_P1;SDS_P2;PMS_P1;PMS_P2;Temp;Humidity;BMP_temperature;BMP_pressure;BME280_temperature;BME280_humidity;BME280_pressure;Samples;Min_cycle;Max_cycle;Signal;HPM_P1;HPM_P2
2021/01/15 00:02:10;;;;;;;8.10;3.17;;;;;;;;;;5049144;28;20021;-63
2021/01/15 00:04:35;;;;;;;9.68;3.50;;;;;;;;;;5047100;28;20052;-64
2021/01/15 00:07:03;;;;;;;8.02;3.47;;;;;;;;;;5047386;28;21885;-64
2021/01/15 00:09:29;;;;;;;8.63;3.83;;;;;;;;;;5048677;28;20511;-64
2021/01/15 00:11:54;;;;;;;10.00;3.13;;;;;;;;;;5048049;28;20022;-64
2021/01/15 00:14:20;;;;;;;9.10;4.03;;;;;;;;;;5047659;28;20115;-64
2021/01/15 00:16:45;;;;;;;7.03;3.40;;;;;;;;;;5048036;28;20083;-64
2021/01/15 00:19:11;;;;;;;8.23;3.08;;;;;;;;;;5048484;28;20043;-64
2021/01/15 00:21:36;;;;;;;9.45;4.05;;;;;;;;;;5072548;22;20327;-66
2021/01/15 00:24:12;;;;;;;6.10;3.22;;;;;;;;;;5055133;28;20662;-66
2021/01/15 00:26:40;;;;;;;5.78;4.13;;;;;;;;;;5055555;28;20021;-66
2021/01/15 00:29:05;;;;;;;8.57;3.42;;;;;;;;;;5056160;28;20107;-67
2021/01/15 00:31:37;;;;;;;7.25;3.55;;;;;;;;;;5056225;28;20129;-66
2021/01/15 00:34:02;;;;;;;5.95;3.33;;;;;;;;;;5047167;28;20503;-66
2021/01/15 00:36:28;;;;;;;7.18;3.65;;;;;;;;;;5047309;28;20025;-66
2021/01/15 00:38:53;;;;;;;4.70;3.25;;;;;;;;;;5046072;28;20346;-66
2021/01/15 00:41:18;;;;;;;6.93;3.95;;;;;;;;;;5046764;28;20582;-66
2021/01/15 00:43:43;;;;;;;7.07;3.67;;;;;;;;;;5046741;28;20028;-66
2021/01/15 00:46:13;;;;;;;11.32;4.60;;;;;;;;;;5047266;28;20538;-66
2021/01/15 00:48:39;;;;;;;9.15;4.40;;;;;;;;;;5046617;28;20033;-66
2021/01/15 00:51:08;;;;;;;16.27;4.25;;;;;;;;;;5047185;28;20017;-66
2021/01/15 00:53:33;;;;;;;11.00;3.80;;;;;;;;;;5044910;28;20027;-66
2021/01/15 00:55:58;;;;;;;8.95;3.75;;;;;;;;;;5046569;28;20021;-66
2021/01/15 00:58:24;;;;;;;10.45;3.47;;;;;;;;;;5047060;28;20397;-66
2021/01/15 01:00:50;;;;;;;6.55;3.75;;;;;;;;;;5046380;28;20027;-66
2021/01/15 01:03:16;;;;;;;11.93;3.88;;;;;;;;;;5046870;28;20032;-66
2021/01/15 01:05:41;;;;;;;7.35;3.28;;;;;;;;;;5047338;28;20013;-66
2021/01/15 01:08:06;;;;;;;9.85;4.10;;;;;;;;;;5046770;28;20039;-66
2021/01/15 01:10:31;;;;;;;9.48;4.28;;;;;;;;;;5047034;28;20029;-66
2021/01/15 01:12:57;;;;;;;8.57;4.20;;;;;;;;;;5046356;28;20104;-66
2021/01/15 01:15:22;;;;;;;7.72;4.07;;;;;;;;;;5046285;28;20029;-66
2021/01/15 01:17:47;;;;;;;9.88;3.90;;;;;;;;;;5045910;28;20538;-66
2021/01/15 01:20:13;;;;;;;8.95;4.05;;;;;;;;;;5047046;28;20453;-66
2021/01/15 01:22:38;;;;;;;9.70;3.75;;;;;;;;;;5046198;28;20024;-66
2021/01/15 01:25:05;;;;;;;9.52;3.90;;;;;;;;;;5045567;28;20048;-66
2021/01/15 01:27:30;;;;;;;10.40;3.85;;;;;;;;;;5044802;28;20111;-66
2021/01/15 01:29:55;;;;;;;7.63;4.10;;;;;;;;;;5046762;28;20155;-66
2021/01/15 01:32:20;;;;;;;13.88;4.13;;;;;;;;;;5046409;28;20033;-66
2021/01/15 01:34:45;;;;;;;6.88;4.00;;;;;;;;;;5045726;28;20044;-66
2021/01/15 01:37:11;;;;;;;10.80;4.68;;;;;;;;;;5046006;28;21930;-66
2021/01/15 01:39:36;;;;;;;8.18;3.60;;;;;;;;;;5044577;28;20168;-66
2021/01/15 01:42:01;;;;;;;7.72;4.25;;;;;;;;;;5044893;28;20032;-66
2021/01/15 01:44:26;;;;;;;7.68;3.72;;;;;;;;;;5045771;28;20024;-66
2021/01/15 01:46:52;;;;;;;8.52;4.10;;;;;;;;;;5046690;28;20017;-67
2021/01/15 01:49:17;;;;;;;7.60;3.95;;;;;;;;;;5045872;28;20151;-66
2021/01/15 01:51:45;;;;;;;10.23;4.50;;;;;;;;;;5044925;28;20116;-66
2021/01/15 01:54:10;;;;;;;10.73;4.40;;;;;;;;;;5045228;28;20373;-66
2021/01/15 01:56:35;;;;;;;11.18;4.28;;;;;;;;;;5041630;28;20025;-66
2021/01/15 01:59:01;;;;;;;11.88;4.88;;;;;;;;;;5045178;28;20033;-66
2021/01/15 02:01:26;;;;;;;7.75;4.13;;;;;;;;;;5046685;28;20016;-66
2021/01/15 02:04:01;;;;;;;13.13;4.95;;;;;;;;;;5045409;28;20017;-66
2021/01/15 02:06:26;;;;;;;9.93;4.55;;;;;;;;;;5045578;28;20017;-66
2021/01/15 02:08:52;;;;;;;10.35;4.40;;;;;;;;;;5045796;28;20020;-66
2021/01/15 02:11:22;;;;;;;9.82;4.20;;;;;;;;;;5045944;28;20121;-66
2021/01/15 02:14:00;;;;;;;7.28;3.60;;;;;;;;;;5044440;28;20037;-66
2021/01/15 02:16:27;;;;;;;10.18;4.60;;;;;;;;;;5045203;28;20082;-66
2021/01/15 02:19:01;;;;;;;8.55;4.43;;;;;;;;;;5045505;28;20065;-66
2021/01/15 02:21:29;;;;;;;9.65;4.22;;;;;;;;;;5044708;28;20013;-66
2021/01/15 02:23:58;;;;;;;10.90;4.68;;;;;;;;;;5046564;28;20111;-66
2021/01/15 02:26:27;;;;;;;9.60;4.70;;;;;;;;;;5044769;28;20056;-66
2021/01/15 02:29:07;;;;;;;7.57;4.10;;;;;;;;;;5045499;28;20025;-66
2021/01/15 02:31:45;;;;;;;9.48;4.70;;;;;;;;;;5035191;28;20126;-66
2021/01/15 02:34:29;;;;;;;11.27;4.68;;;;;;;;;;5045572;28;20360;-66
2021/01/15 02:36:54;;;;;;;10.88;4.97;;;;;;;;;;5045505;28;20024;-66
2021/01/15 02:39:31;;;;;;;10.23;4.60;;;;;;;;;;5045178;28;20025;-66
2021/01/15 02:41:57;;;;;;;8.65;4.15;;;;;;;;;;5045236;28;20025;-66
2021/01/15 02:44:23;;;;;;;10.63;4.82;;;;;;;;;;5042696;28;20238;-66
2021/01/15 02:46:53;;;;;;;11.60;4.80;;;;;;;;;;5045102;28;20025;-66
2021/01/15 02:49:19;;;;;;;11.73;4.60;;;;;;;;;;5045164;28;20022;-66
2021/01/15 02:51:44;;;;;;;10.65;4.53;;;;;;;;;;5045036;28;20035;-67
2021/01/15 02:54:09;;;;;;;11.35;4.35;;;;;;;;;;5045181;28;20024;-66
2021/01/15 02:56:35;;;;;;;9.98;4.55;;;;;;;;;;5046080;28;20484;-66
2021/01/15 02:59:01;;;;;;;10.70;5.18;;;;;;;;;;5045469;28;20017;-66
2021/01/15 03:01:29;;;;;;;12.50;4.97;;;;;;;;;;5046190;28;20029;-66
2021/01/15 03:04:03;;;;;;;11.93;5.10;;;;;;;;;;5047635;28;20017;-66
2021/01/15 03:06:37;;;;;;;8.30;4.68;;;;;;;;;;5048569;28;20024;-66
2021/01/15 03:09:03;;;;;;;16.10;5.22;;;;;;;;;;5048676;28;20766;-66
2021/01/15 03:11:31;;;;;;;8.23;4.75;;;;;;;;;;5048639;28;20043;-66
2021/01/15 03:13:58;;;;;;;9.77;4.70;;;;;;;;;;5048972;28;20036;-66
2021/01/15 03:16:24;;;;;;;8.73;4.93;;;;;;;;;;5048396;28;20029;-66
2021/01/15 03:18:50;;;;;;;9.27;4.38;;;;;;;;;;5049084;28;20512;-66
2021/01/15 03:21:15;;;;;;;8.20;4.15;;;;;;;;;;5048707;28;20500;-66
2021/01/15 03:23:40;;;;;;;10.38;4.80;;;;;;;;;;5049325;28;20028;-66
2021/01/15 03:26:07;;;;;;;7.88;4.57;;;;;;;;;;5049451;28;20036;-66
2021/01/15 03:28:32;;;;;;;11.80;4.28;;;;;;;;;;5049202;28;20039;-66
2021/01/15 03:30:57;;;;;;;10.50;4.32;;;;;;;;;;5049010;28;20021;-66
2021/01/15 03:33:22;;;;;;;10.02;4.47;;;;;;;;;;5049011;28;20040;-66
2021/01/15 03:35:47;;;;;;;7.70;4.15;;;;;;;;;;5048236;28;20017;-66
2021/01/15 03:38:13;;;;;;;8.73;4.57;;;;;;;;;;5048351;28;20108;-66
2021/01/15 03:40:39;;;;;;;10.18;5.03;;;;;;;;;;5048792;28;20025;-66
2021/01/15 03:43:13;;;;;;;10.02;4.45;;;;;;;;;;5049077;28;20052;-67
2021/01/15 03:45:39;;;;;;;12.70;5.15;;;;;;;;;;5048598;28;20043;-67
2021/01/15 03:48:05;;;;;;;11.95;4.50;;;;;;;;;;5048444;28;20480;-67
2021/01/15 03:50:30;;;;;;;10.15;4.95;;;;;;;;;;5048976;28;20035;-66
2021/01/15 03:52:55;;;;;;;7.72;4.32;;;;;;;;;;5048638;28;20024;-66
2021/01/15 03:55:20;;;;;;;13.05;4.82;;;;;;;;;;5047343;28;20111;-66
2021/01/15 03:57:45;;;;;;;10.85;4.75;;;;;;;;;;5048594;28;20036;-66
2021/01/15 04:00:11;;;;;;;9.63;5.10;;;;;;;;;;5048534;28;20024;-66
2021/01/15 04:02:36;;;;;;;12.20;4.57;;;;;;;;;;5047831;28;20021;-67
2021/01/15 04:05:02;;;;;;;11.18;4.72;;;;;;;;;;5047750;28;20029;-66
2021/01/15 04:07:28;;;;;;;13.55;6.45;;;;;;;;;;5047985;28;20083;-66
2021/01/15 04:09:53;;;;;;;14.57;6.85;;;;;;;;;;5048449;28;20517;-66
2021/01/15 04:12:18;;;;;;;21.38;7.13;;;;;;;;;;5048315;28;20039;-66
2021/01/15 04:14:44;;;;;;;16.33;6.95;;;;;;;;;;5048602;28;20032;-66
2021/01/15 04:17:09;;;;;;;12.25;6.57;;;;;;;;;;5047638;28;20384;-66
2021/01/15 04:19:34;;;;;;;17.35;8.05;;;;;;;;;;5047093;28;20629;-66
2021/01/15 04:22:00;;;;;;;21.20;8.90;;;;;;;;;;5047715;28;20029;-65
2021/01/15 04:24:25;;;;;;;14.40;7.82;;;;;;;;;;5047273;28;20033;-65
2021/01/15 04:26:53;;;;;;;25.60;8.23;;;;;;;;;;5047349;28;20056;-65
2021/01/15 04:29:19;;;;;;;19.58;8.70;;;;;;;;;;5047287;28;20025;-65
2021/01/15 04:31:44;;;;;;;21.23;10.27;;;;;;;;;;5045757;28;20031;-66
2021/01/15 04:34:09;;;;;;;24.13;9.68;;;;;;;;;;5045312;28;20142;-66
2021/01/15 04:36:35;;;;;;;24.90;10.07;;;;;;;;;;5045446;28;20718;-66
2021/01/15 04:39:00;;;;;;;22.92;10.23;;;;;;;;;;5045829;28;20322;-66
2021/01/15 04:41:26;;;;;;;31.90;11.68;;;;;;;;;;5045728;28;20017;-66
2021/01/15 04:43:54;;;;;;;23.08;9.93;;;;;;;;;;5045204;28;20140;-66
2021/01/15 04:46:20;;;;;;;22.02;10.25;;;;;;;;;;5046004;28;20432;-67
2021/01/15 04:48:48;;;;;;;24.20;10.52;;;;;;;;;;5044958;28;20036;-66
2021/01/15 04:51:17;;;;;;;20.10;9.90;;;;;;;;;;5045140;28;20103;-66
2021/01/15 04:53:44;;;;;;;29.48;11.65;;;;;;;;;;5045652;28;20036;-66
2021/01/15 04:56:11;;;;;;;23.25;11.13;;;;;;;;;;5044942;28;20071;-66
2021/01/15 04:58:39;;;;;;;24.67;11.40;;;;;;;;;;5045744;28;20033;-66
2021/01/15 05:01:06;;;;;;;25.52;10.98;;;;;;;;;;5045331;28;20036;-66
2021/01/15 05:03:32;;;;;;;25.55;11.35;;;;;;;;;;5044671;28;20110;-66
2021/01/15 05:05:58;;;;;;;30.45;11.80;;;;;;;;;;5044414;28;20489;-66
2021/01/15 05:08:27;;;;;;;24.70;10.98;;;;;;;;;;5046066;28;20029;-66
2021/01/15 05:10:53;;;;;;;25.50;11.25;;;;;;;;;;5044981;28;20029;-66
2021/01/15 05:13:18;;;;;;;19.88;10.40;;;;;;;;;;5045430;28;20374;-66
2021/01/15 05:15:44;;;;;;;21.42;10.20;;;;;;;;;;5046368;28;20029;-66
2021/01/15 05:18:10;;;;;;;25.17;11.23;;;;;;;;;;5046986;28;20020;-66
2021/01/15 05:20:36;;;;;;;22.48;10.30;;;;;;;;;;5046171;28;20098;-66
2021/01/15 05:23:05;;;;;;;26.52;11.82;;;;;;;;;;5046710;28;20370;-67
2021/01/15 05:25:31;;;;;;;18.65;9.63;;;;;;;;;;5046356;28;20389;-67
2021/01/15 05:27:56;;;;;;;25.63;9.80;;;;;;;;;;5048704;28;20420;-67
2021/01/15 05:30:23;;;;;;;22.40;9.98;;;;;;;;;;5047199;28;20037;-66
2021/01/15 05:32:49;;;;;;;21.38;10.18;;;;;;;;;;5045207;28;20025;-66
2021/01/15 05:35:15;;;;;;;20.02;9.68;;;;;;;;;;5044494;28;20033;-66
2021/01/15 05:37:41;;;;;;;22.52;10.15;;;;;;;;;;5044497;28;20746;-65
2021/01/15 05:40:07;;;;;;;21.90;10.05;;;;;;;;;;5045096;28;20079;-65
2021/01/15 05:42:45;;;;;;;21.13;10.68;;;;;;;;;;5044380;28;20016;-65
2021/01/15 05:45:13;;;;;;;24.75;9.68;;;;;;;;;;5043446;28;20017;-65
2021/01/15 05:47:44;;;;;;;24.77;10.70;;;;;;;;;;5044020;28;20051;-65
2021/01/15 05:50:13;;;;;;;22.08;9.85;;;;;;;;;;5044423;28;20033;-65
2021/01/15 05:52:55;;;;;;;18.92;9.50;;;;;;;;;;5045020;28;20057;-65
2021/01/15 05:55:20;;;;;;;20.13;9.38;;;;;;;;;;5044758;28;20029;-65
2021/01/15 05:57:47;;;;;;;24.40;10.23;;;;;;;;;;5043958;28;20480;-65
2021/01/15 06:00:33;;;;;;;18.00;9.95;;;;;;;;;;5045093;28;20036;-65
2021/01/15 06:02:59;;;;;;;19.58;9.65;;;;;;;;;;5045501;28;20029;-65
2021/01/15 06:05:24;;;;;;;24.92;9.80;;;;;;;;;;5044326;28;20034;-65
2021/01/15 06:07:56;;;;;;;21.00;10.68;;;;;;;;;;5043889;28;20090;-65
2021/01/15 06:10:21;;;;;;;23.92;9.43;;;;;;;;;;5043375;28;20404;-65
2021/01/15 06:12:46;;;;;;;25.17;11.40;;;;;;;;;;5043792;28;20025;-65
2021/01/15 06:15:12;;;;;;;24.38;10.10;;;;;;;;;;5044554;28;20033;-65
2021/01/15 06:17:38;;;;;;;21.30;10.80;;;;;;;;;;5043985;28;20031;-65
2021/01/15 06:20:04;;;;;;;24.27;11.07;;;;;;;;;;5043589;28;20025;-65
2021/01/15 06:22:36;;;;;;;19.67;10.57;;;;;;;;;;5066774;22;20061;-67
2021/01/15 06:25:07;;;;;;;21.95;11.10;;;;;;;;;;5045986;28;20060;-65
2021/01/15 06:27:34;;;;;;;21.52;11.43;;;;;;;;;;5046310;28;20709;-65
2021/01/15 06:30:01;;;;;;;23.83;10.90;;;;;;;;;;5047133;28;20070;-66
2021/01/15 06:32:26;;;;;;;22.27;11.48;;;;;;;;;;5043982;28;20025;-65
2021/01/15 06:34:54;;;;;;;22.92;11.02;;;;;;;;;;5029986;28;20036;-61
2021/01/15 06:37:20;;;;;;;21.30;11.23;;;;;;;;;;5033751;28;20026;-65
2021/01/15 06:40:02;;;;;;;23.80;11.50;;;;;;;;;;5035625;28;20024;-64
2021/01/15 06:42:30;;;;;;;21.27;11.35;;;;;;;;;;5029191;28;20048;-64
2021/01/15 06:44:55;;;;;;;29.52;13.13;;;;;;;;;;5029451;28;20025;-64
2021/01/15 06:47:21;;;;;;;26.17;11.48;;;;;;;;;;5028032;28;20029;-64
2021/01/15 06:49:48;;;;;;;27.08;11.98;;;;;;;;;;5026479;28;20044;-64
2021/01/15 06:52:19;;;;;;;23.35;12.38;;;;;;;;;;5030477;28;20043;-65
2021/01/15 06:54:45;;;;;;;26.60;11.73;;;;;;;;;;5030552;28;20025;-64
2021/01/15 06:57:11;;;;;;;46.20;13.05;;;;;;;;;;5030561;28;20087;-65
2021/01/15 06:59:37;;;;;;;28.65;13.27;;;;;;;;;;5029980;28;20022;-64
2021/01/15 07:02:10;;;;;;;31.17;13.35;;;;;;;;;;5030218;28;20488;-65
2021/01/15 07:04:49;;;;;;;27.83;13.48;;;;;;;;;;5031826;28;20067;-65
2021/01/15 07:07:15;;;;;;;25.95;13.20;;;;;;;;;;5029244;28;20052;-64
2021/01/15 07:09:41;;;;;;;30.27;14.48;;;;;;;;;;5031483;28;20428;-64
2021/01/15 07:12:10;;;;;;;25.60;13.05;;;;;;;;;;5033727;28;20021;-65
2021/01/15 07:14:42;;;;;;;29.07;12.27;;;;;;;;;;5032297;28;20029;-65
2021/01/15 07:17:12;;;;;;;31.27;14.43;;;;;;;;;;5034761;28;20022;-62
2021/01/15 07:19:41;;;;;;;30.50;14.45;;;;;;;;;;5037091;28;20370;-64
2021/01/15 07:22:06;;;;;;;37.85;15.93;;;;;;;;;;5032438;28;20028;-64
2021/01/15 07:24:32;;;;;;;37.20;15.77;;;;;;;;;;5033231;28;20021;-65
2021/01/15 07:26:57;;;;;;;29.13;15.43;;;;;;;;;;5033020;28;20017;-65
2021/01/15 07:29:24;;;;;;;37.72;16.52;;;;;;;;;;5032711;28;20466;-65
2021/01/15 07:31:56;;;;;;;30.65;15.30;;;;;;;;;;5022781;28;20159;-65
2021/01/15 07:34:23;;;;;;;32.33;15.82;;;;;;;;;;5018962;28;20021;-65
2021/01/15 07:36:49;;;;;;;34.17;16.63;;;;;;;;;;5021645;28;20530;-65
2021/01/15 07:39:18;;;;;;;37.63;17.30;;;;;;;;;;5021621;28;20025;-65
2021/01/15 07:41:48;;;;;;;35.20;16.83;;;;;;;;;;5030800;28;20021;-65
2021/01/15 07:44:22;;;;;;;35.38;15.68;;;;;;;;;;5027317;28;20021;-65
2021/01/15 07:46:49;;;;;;;37.97;17.95;;;;;;;;;;5019487;28;20366;-65
2021/01/15 07:49:14;;;;;;;36.58;18.20;;;;;;;;;;5031277;28;20374;-64
2021/01/15 07:51:39;;;;;;;39.60;18.52;;;;;;;;;;5028157;28;20021;-64
2021/01/15 07:54:04;;;;;;;41.88;19.02;;;;;;;;;;5031044;28;20021;-64
2021/01/15 07:56:31;;;;;;;36.03;17.37;;;;;;;;;;5027219;28;20025;-64
2021/01/15 07:58:56;;;;;;;34.97;16.35;;;;;;;;;;5032545;28;20301;-64
2021/01/15 08:01:21;;;;;;;41.28;19.27;;;;;;;;;;5027204;28;20033;-64
2021/01/15 08:03:52;;;;;;;44.15;19.35;;;;;;;;;;5024136;28;20049;-64
2021/01/15 08:06:17;;;;;;;;;;;;;;;;;;5020140;28;20098;-64
2021/01/15 08:08:57;;;;;;;37.00;18.67;;;;;;;;;;5022027;28;19999;-64
2021/01/15 08:11:23;;;;;;;42.53;20.25;;;;;;;;;;5027566;28;20497;-64
2021/01/15 08:13:48;;;;;;;42.10;20.05;;;;;;;;;;5024035;28;20048;-65
2021/01/15 08:16:13;;;;;;;45.03;21.15;;;;;;;;;;5028778;28;20109;-64
2021/01/15 08:18:38;;;;;;;41.10;20.15;;;;;;;;;;5031514;28;20030;-65
2021/01/15 08:21:04;;;;;;;52.40;21.80;;;;;;;;;;5031649;28;20087;-64
2021/01/15 08:23:29;;;;;;;45.50;21.25;;;;;;;;;;5028211;28;20036;-65
2021/01/15 08:26:01;;;;;;;39.80;20.92;;;;;;;;;;5033565;28;20107;-64
2021/01/15 08:28:26;;;;;;;46.78;20.33;;;;;;;;;;5028122;28;20481;-66
2021/01/15 08:30:55;;;;;;;48.85;21.35;;;;;;;;;;5027712;28;20104;-65
2021/01/15 08:33:21;;;;;;;47.70;22.65;;;;;;;;;;5030280;28;20378;-65
2021/01/15 08:35:51;;;;;;;50.75;23.45;;;;;;;;;;5034129;28;20021;-67
2021/01/15 08:38:25;;;;;;;50.75;23.25;;;;;;;;;;5028657;28;20022;-64
2021/01/15 08:40:50;;;;;;;46.10;22.67;;;;;;;;;;5025281;28;20505;-66
2021/01/15 08:43:16;;;;;;;44.10;21.77;;;;;;;;;;5031232;28;20033;-63
2021/01/15 08:45:41;;;;;;;46.78;21.92;;;;;;;;;;5027904;28;20053;-66
2021/01/15 08:48:07;;;;;;;50.55;21.77;;;;;;;;;;5028631;28;20033;-64
2021/01/15 08:50:32;;;;;;;42.38;21.38;;;;;;;;;;5030054;28;20022;-64
2021/01/15 08:52:59;;;;;;;44.72;21.55;;;;;;;;;;5030005;28;20049;-65
2021/01/15 08:55:25;;;;;;;46.35;21.33;;;;;;;;;;5027411;28;20071;-64
2021/01/15 08:57:50;;;;;;;52.67;22.45;;;;;;;;;;5027042;28;20477;-66
2021/01/15 09:00:18;;;;;;;46.28;21.27;;;;;;;;;;5028311;28;20025;-64
2021/01/15 09:02:44;;;;;;;43.97;21.42;;;;;;;;;;5029993;28;20014;-65
2021/01/15 09:05:13;;;;;;;45.40;22.50;;;;;;;;;;5028908;28;20052;-65
2021/01/15 09:07:42;;;;;;;49.63;22.48;;;;;;;;;;5028684;28;20055;-64
2021/01/15 09:10:08;;;;;;;46.45;22.60;;;;;;;;;;5025526;28;20029;-64
2021/01/15 09:12:34;;;;;;;47.78;20.85;;;;;;;;;;5020489;28;20064;-65
2021/01/15 09:14:59;;;;;;;47.95;21.33;;;;;;;;;;5027804;28;20034;-66
2021/01/15 09:17:25;;;;;;;48.50;21.42;;;;;;;;;;5024829;28;20041;-65
2021/01/15 09:19:50;;;;;;;55.25;21.52;;;;;;;;;;5023816;28;20433;-64
2021/01/15 09:22:17;;;;;;;56.67;23.03;;;;;;;;;;5025033;28;20021;-66
2021/01/15 09:24:42;;;;;;;45.88;20.52;;;;;;;;;;5031139;28;20280;-64
2021/01/15 09:27:08;;;;;;;50.65;20.35;;;;;;;;;;5033662;28;20489;-64
2021/01/15 09:29:34;;;;;;;42.03;19.23;;;;;;;;;;5024426;28;20079;-64
2021/01/15 09:32:00;;;;;;;44.42;20.40;;;;;;;;;;5020268;28;20017;-65
2021/01/15 09:34:26;;;;;;;40.97;18.55;;;;;;;;;;5024120;28;20028;-64
2021/01/15 09:36:51;;;;;;;39.45;18.25;;;;;;;;;;5024920;28;20451;-65
2021/01/15 09:39:18;;;;;;;43.50;19.35;;;;;;;;;;5022677;28;20107;-65
2021/01/15 09:41:47;;;;;;;42.38;19.42;;;;;;;;;;5027734;28;20013;-65
2021/01/15 09:44:13;;;;;;;48.22;20.77;;;;;;;;;;5026608;28;20647;-67
2021/01/15 09:46:38;;;;;;;39.72;18.85;;;;;;;;;;5029108;28;20025;-64
2021/01/15 09:49:03;;;;;;;44.00;19.33;;;;;;;;;;5032370;28;20037;-66
2021/01/15 09:51:28;;;;;;;43.10;19.70;;;;;;;;;;5026451;28;20022;-65
2021/01/15 09:53:54;;;;;;;46.33;21.33;;;;;;;;;;5023082;28;20040;-64
2021/01/15 09:56:20;;;;;;;43.45;18.58;;;;;;;;;;5022694;28;20022;-64
2021/01/15 09:58:45;;;;;;;47.47;20.75;;;;;;;;;;5028161;28;20036;-64
2021/01/15 10:01:10;;;;;;;46.00;19.53;;;;;;;;;;5025293;28;20426;-64
2021/01/15 10:03:35;;;;;;;46.00;19.80;;;;;;;;;;5025701;28;20272;-64
2021/01/15 10:06:00;;;;;;;44.80;19.53;;;;;;;;;;5031181;28;21051;-64
2021/01/15 10:08:25;;;;;;;44.47;19.27;;;;;;;;;;5025038;28;20323;-64
2021/01/15 10:10:51;;;;;;;48.57;19.10;;;;;;;;;;5024845;28;20298;-64
2021/01/15 10:13:16;;;;;;;43.00;20.05;;;;;;;;;;5028449;28;20295;-64
2021/01/15 10:15:41;;;;;;;41.55;18.63;;;;;;;;;;5028174;28;20052;-64
2021/01/15 10:18:06;;;;;;;56.80;21.25;;;;;;;;;;5026207;28;20094;-64
2021/01/15 10:20:32;;;;;;;44.60;19.75;;;;;;;;;;5022294;28;20022;-64
2021/01/15 10:22:57;;;;;;;49.67;21.23;;;;;;;;;;5030346;28;20049;-64
2021/01/15 10:25:22;;;;;;;42.92;19.17;;;;;;;;;;5029257;28;20462;-63
2021/01/15 10:27:47;;;;;;;42.13;19.40;;;;;;;;;;5029090;28;20025;-64
2021/01/15 10:30:13;;;;;;;45.67;20.57;;;;;;;;;;5022730;28;21750;-64
2021/01/15 10:32:38;;;;;;;41.55;18.65;;;;;;;;;;5023517;28;20277;-64
2021/01/15 10:35:03;;;;;;;37.70;18.10;;;;;;;;;;5016938;28;20029;-64
2021/01/15 10:37:30;;;;;;;42.42;19.02;;;;;;;;;;5027762;28;20465;-64
2021/01/15 10:39:56;;;;;;;42.88;18.70;;;;;;;;;;5020632;28;20013;-64
2021/01/15 10:42:21;;;;;;;39.97;18.88;;;;;;;;;;5024786;28;20518;-64
2021/01/15 10:44:46;;;;;;;41.92;19.80;;;;;;;;;;5030961;28;20072;-64
2021/01/15 10:47:14;;;;;;;43.83;20.05;;;;;;;;;;5036769;28;20473;-64
2021/01/15 10:49:39;;;;;;;46.88;20.80;;;;;;;;;;5035909;28;20056;-64
2021/01/15 10:52:05;;;;;;;46.15;19.65;;;;;;;;;;5031440;28;20049;-64
2021/01/15 10:54:30;;;;;;;41.95;18.92;;;;;;;;;;5031504;28;20021;-64
2021/01/15 10:56:55;;;;;;;42.92;19.67;;;;;;;;;;5031714;28;20078;-64
2021/01/15 10:59:21;;;;;;;48.33;18.83;;;;;;;;;;5036446;28;20029;-64
2021/01/15 11:01:47;;;;;;;45.60;20.60;;;;;;;;;;5029960;28;20260;-65
2021/01/15 11:04:14;;;;;;;42.83;20.83;;;;;;;;;;5030322;28;20124;-64
2021/01/15 11:06:40;;;;;;;49.60;20.80;;;;;;;;;;5033808;28;20041;-65
2021/01/15 11:09:05;;;;;;;41.22;19.13;;;;;;;;;;5031701;28;20043;-65
2021/01/15 11:11:31;;;;;;;47.58;21.02;;;;;;;;;;5029356;28;20141;-65
2021/01/15 11:13:56;;;;;;;49.08;22.98;;;;;;;;;;5028327;28;20478;-65
2021/01/15 11:16:23;;;;;;;50.45;22.50;;;;;;;;;;5030123;28;20525;-65
2021/01/15 11:18:48;;;;;;;47.72;20.95;;;;;;;;;;5034697;28;20441;-65
2021/01/15 11:21:21;;;;;;;47.40;21.98;;;;;;;;;;5035473;28;20101;-66
2021/01/15 11:23:47;;;;;;;49.92;22.52;;;;;;;;;;5030857;28;20163;-64
2021/01/15 11:26:12;;;;;;;51.23;21.77;;;;;;;;;;5038455;28;20501;-65
2021/01/15 11:28:37;;;;;;;47.13;20.83;;;;;;;;;;5033383;28;20268;-65
2021/01/15 11:31:02;;;;;;;54.65;24.40;;;;;;;;;;5035731;28;20272;-64
2021/01/15 11:33:27;;;;;;;51.65;22.85;;;;;;;;;;5038881;28;20599;-64
2021/01/15 11:35:53;;;;;;;50.83;21.63;;;;;;;;;;5040350;28;20017;-64
2021/01/15 11:38:18;;;;;;;53.73;22.90;;;;;;;;;;5038153;28;20571;-64
2021/01/15 11:40:43;;;;;;;70.85;25.77;;;;;;;;;;5037157;28;20467;-64
2021/01/15 11:43:08;;;;;;;50.60;22.42;;;;;;;;;;5039425;28;20401;-65
2021/01/15 11:45:33;;;;;;;50.15;23.27;;;;;;;;;;5035225;28;20041;-65
2021/01/15 11:47:58;;;;;;;47.53;22.43;;;;;;;;;;5036215;28;20033;-65
2021/01/15 11:50:24;;;;;;;51.10;21.80;;;;;;;;;;5037230;28;20731;-67
2021/01/15 11:52:56;;;;;;;54.88;24.33;;;;;;;;;;5037024;28;20028;-64
2021/01/15 11:55:21;;;;;;;57.67;25.60;;;;;;;;;;5033528;28;20480;-65
2021/01/15 11:57:53;;;;;;;50.38;23.98;;;;;;;;;;5032578;28;20057;-65
2021/01/15 12:00:19;;;;;;;45.50;22.73;;;;;;;;;;5034113;28;20107;-64
2021/01/15 12:02:44;;;;;;;50.33;22.77;;;;;;;;;;5033481;28;20019;-64
2021/01/15 12:05:09;;;;;;;50.38;23.98;;;;;;;;;;5034645;28;20021;-65
2021/01/15 12:07:36;;;;;;;47.45;21.75;;;;;;;;;;5033170;28;20112;-65
2021/01/15 12:10:02;;;;;;;52.35;23.95;;;;;;;;;;5036355;28;20481;-65
2021/01/15 12:12:27;;;;;;;51.60;22.27;;;;;;;;;;5034868;28;20028;-64
2021/01/15 12:14:52;;;;;;;44.28;21.45;;;;;;;;;;5036448;28;20048;-64
2021/01/15 12:17:17;;;;;;;50.57;19.83;;;;;;;;;;5033840;28;21417;-64
2021/01/15 12:19:42;;;;;;;43.83;19.42;;;;;;;;;;5032041;28;20283;-64
2021/01/15 12:22:08;;;;;;;36.00;16.65;;;;;;;;;;5035026;28;20022;-64
2021/01/15 12:24:33;;;;;;;33.08;16.23;;;;;;;;;;5033459;28;20381;-65
2021/01/15 12:26:59;;;;;;;31.48;15.20;;;;;;;;;;5034963;28;20028;-65
2021/01/15 12:29:25;;;;;;;26.95;12.25;;;;;;;;;;5036003;28;20064;-65
2021/01/15 12:31:53;;;;;;;29.95;12.93;;;;;;;;;;5032906;28;20048;-66
2021/01/15 12:34:18;;;;;;;29.55;13.05;;;;;;;;;;5035085;28;20017;-65
2021/01/15 12:36:44;;;;;;;30.93;12.60;;;;;;;;;;5033567;28;20500;-65
2021/01/15 12:39:10;;;;;;;24.50;11.85;;;;;;;;;;5035456;28;20280;-65
2021/01/15 12:41:35;;;;;;;22.50;11.07;;;;;;;;;;5032809;28;20390;-65
2021/01/15 12:44:00;;;;;;;22.33;10.93;;;;;;;;;;5033269;28;20260;-65
2021/01/15 12:46:26;;;;;;;23.13;10.73;;;;;;;;;;5035659;28;20748;-65
2021/01/15 12:48:52;;;;;;;21.80;10.57;;;;;;;;;;5032822;28;20451;-65
2021/01/15 12:51:17;;;;;;;22.25;9.75;;;;;;;;;;5042597;28;20017;-65
2021/01/15 12:53:42;;;;;;;18.37;8.67;;;;;;;;;;5045581;28;20029;-65
2021/01/15 12:56:07;;;;;;;17.05;8.40;;;;;;;;;;5040641;28;20842;-65
2021/01/15 12:58:33;;;;;;;16.83;8.93;;;;;;;;;;5039187;28;20024;-65
2021/01/15 13:00:59;;;;;;;17.27;7.60;;;;;;;;;;5040565;28;20017;-65
2021/01/15 13:03:24;;;;;;;23.45;9.05;;;;;;;;;;5031395;28;20028;-65
2021/01/15 13:05:50;;;;;;;15.57;7.15;;;;;;;;;;5042811;28;20381;-65
2021/01/15 13:08:15;;;;;;;15.10;7.75;;;;;;;;;;5040425;28;20016;-65
2021/01/15 13:10:44;;;;;;;10.48;5.70;;;;;;;;;;5036990;28;20466;-65
2021/01/15 13:13:09;;;;;;;10.88;5.28;;;;;;;;;;5035014;28;20075;-65
2021/01/15 13:15:34;;;;;;;14.50;7.57;;;;;;;;;;5035988;28;20717;-65
2021/01/15 13:18:00;;;;;;;10.30;5.70;;;;;;;;;;5033914;28;20291;-65
2021/01/15 13:20:26;;;;;;;10.32;5.22;;;;;;;;;;5038937;28;20040;-65
2021/01/15 13:23:00;;;;;;;10.15;5.82;;;;;;;;;;5036573;28;20065;-65
2021/01/15 13:25:26;;;;;;;13.55;5.13;;;;;;;;;;5036730;28;20017;-65
2021/01/15 13:27:51;;;;;;;13.18;5.15;;;;;;;;;;5039224;28;20096;-65
2021/01/15 13:30:17;;;;;;;14.82;6.05;;;;;;;;;;5038271;28;20021;-64
2021/01/15 13:32:42;;;;;;;12.48;5.63;;;;;;;;;;5041196;28;20307;-64
2021/01/15 13:35:08;;;;;;;14.97;6.43;;;;;;;;;;5047385;28;20112;-64
2021/01/15 13:37:34;;;;;;;12.15;6.05;;;;;;;;;;5022702;28;20272;-63
2021/01/15 13:39:59;;;;;;;16.25;6.30;;;;;;;;;;5020992;28;20382;-63
2021/01/15 13:42:25;;;;;;;15.50;6.15;;;;;;;;;;5020752;28;20033;-65
2021/01/15 13:44:50;;;;;;;15.52;6.53;;;;;;;;;;5040424;28;20767;-65
2021/01/15 13:47:15;;;;;;;14.13;6.20;;;;;;;;;;5033888;28;20021;-63
2021/01/15 13:49:41;;;;;;;15.13;6.47;;;;;;;;;;5036924;28;20120;-65
2021/01/15 13:52:06;;;;;;;15.05;7.13;;;;;;;;;;5037762;28;20260;-64
2021/01/15 13:54:31;;;;;;;15.98;7.60;;;;;;;;;;5033813;28;20535;-64
2021/01/15 13:56:56;;;;;;;18.33;8.38;;;;;;;;;;5039279;28;20017;-65
2021/01/15 13:59:21;;;;;;;20.65;9.10;;;;;;;;;;5034182;28;20079;-65
2021/01/15 14:01:47;;;;;;;20.07;8.60;;;;;;;;;;5033647;28;20053;-65
2021/01/15 14:04:12;;;;;;;15.37;8.50;;;;;;;;;;5038548;28;20346;-65
2021/01/15 14:06:37;;;;;;;20.98;9.65;;;;;;;;;;5036293;28;20296;-67
2021/01/15 14:09:03;;;;;;;25.85;9.65;;;;;;;;;;5037223;28;20084;-65
2021/01/15 14:11:28;;;;;;;23.88;10.98;;;;;;;;;;5035321;28;20032;-66
2021/01/15 14:13:53;;;;;;;28.40;10.27;;;;;;;;;;5045377;28;20033;-66
2021/01/15 14:16:18;;;;;;;23.08;11.13;;;;;;;;;;5035077;28;20278;-65
2021/01/15 14:18:43;;;;;;;22.47;10.07;;;;;;;;;;5037026;28;20303;-65
2021/01/15 14:21:09;;;;;;;21.25;10.52;;;;;;;;;;5033291;28;20731;-65
2021/01/15 14:23:34;;;;;;;19.70;10.47;;;;;;;;;;5036778;28;20030;-64